sensor_id;sensor_type;location;lat;lon;timestamp;P1;durP1;ratioP1;P2;durP2;ratioP2
49784;SDS011;35679;38.732;-121.358;2022-11-18T00:00:56;4.28;;;3.88;;
49784;SDS011;35679;38.732;-121.358;2022-11-18T00:03:54;4.15;;;3.83;;
49784;SDS011;35679;38.732;-121.358;2022-11-18T00:06:44;4.18;;;3.78;;
49784;SDS011;35679;38.732;-121.358;2022-11-18T00:09:35;3.95;;;3.65;;
49784;SDS011;35679;38.732;-121.358;2022-11-18T00:12:26;4.18;;;3.78;;
49784;SDS011;35679;38.732;-121.358;2022-11-18T00:15:34;3.90;;;3.60;;
49784;SDS011;35679;38.732;-121.358;2022-11-18T00:18:25;3.90;;;3.60;;
49784;SDS011;35679;38.732;-121.358;2022-11-18T00:21:17;4.07;;;3.67;;
49784;SDS011;35679;38.732;-121.358;2022-11-18T00:24:09;5.38;;;4.03;;
49784;SDS011;35679;38.732;-121.358;2022-11-18T00:27:00;4.25;;;3.85;;
49784;SDS011;35679;38.732;-121.358;2022-11-18T00:29:50;3.88;;;3.42;;
49784;SDS011;35679;38.732;-121.358;2022-11-18T00:32:42;4.22;;;3.92;;
49784;SDS011;35679;38.732;-121.358;2022-11-18T00:35:33;4.25;;;3.92;;
49784;SDS011;35679;38.732;-121.358;2022-11-18T00:38:24;4.20;;;3.80;;
49784;SDS011;35679;38.732;-121.358;2022-11-18T00:41:15;4.30;;;3.97;;
49784;SDS011;35679;38.732;-121.358;2022-11-18T00:44:07;4.38;;;3.97;;
49784;SDS011;35679;38.732;-121.358;2022-11-18T00:46:58;4.60;;;4.20;;
49784;SDS011;35679;38.732;-121.358;2022-11-18T00:49:49;4.53;;;3.92;;
49784;SDS011;35679;38.732;-121.358;2022-11-18T00:52:40;4.15;;;3.85;;
49784;SDS011;35679;38.732;-121.358;2022-11-18T00:55:31;4.07;;;3.78;;
49784;SDS011;35679;38.732;-121.358;2022-11-18T00:58:23;3.97;;;3.75;;
49784;SDS011;35679;38.732;-121.358;2022-11-18T01:01:14;3.92;;;3.60;;
49784;SDS011;35679;38.732;-121.358;2022-11-18T01:04:05;4.20;;;3.80;;
49784;SDS011;35679;38.732;-121.358;2022-11-18T01:06:56;4.15;;;3.72;;
49784;SDS011;35679;38.732;-121.358;2022-11-18T01:09:47;4.60;;;4.15;;
49784;SDS011;35679;38.732;-121.358;2022-11-18T01:12:38;4.05;;;3.75;;
49784;SDS011;35679;38.732;-121.358;2022-11-18T01:15:50;4.85;;;3.90;;
49784;SDS011;35679;38.732;-121.358;2022-11-18T01:18:47;3.83;;;3.53;;
49784;SDS011;35679;38.732;-121.358;2022-11-18T01:21:37;4.00;;;3.70;;
49784;SDS011;35679;38.732;-121.358;2022-11-18T01:24:29;4.00;;;3.70;;
49784;SDS011;35679;38.732;-121.358;2022-11-18T01:27:20;4.38;;;3.97;;
49784;SDS011;35679;38.732;-121.358;2022-11-18T01:30:10;4.10;;;3.75;;
49784;SDS011;35679;38.732;-121.358;2022-11-18T01:33:02;4.20;;;3.80;;
49784;SDS011;35679;38.732;-121.358;2022-11-18T01:35:54;4.10;;;3.73;;
49784;SDS011;35679;38.732;-121.358;2022-11-18T01:38:45;4.25;;;3.95;;
49784;SDS011;35679;38.732;-121.358;2022-11-18T01:41:36;3.90;;;3.60;;
49784;SDS011;35679;38.732;-121.358;2022-11-18T01:47:58;4.50;;;4.10;;
49784;SDS011;35679;38.732;-121.358;2022-11-18T01:51:13;4.13;;;3.83;;
49784;SDS011;35679;38.732;-121.358;2022-11-18T01:54:13;4.22;;;3.92;;
49784;SDS011;35679;38.732;-121.358;2022-11-18T01:57:16;3.90;;;3.63;;
49784;SDS011;35679;38.732;-121.358;2022-11-18T02:00:14;4.03;;;3.72;;
49784;SDS011;35679;38.732;-121.358;2022-11-18T02:03:06;5.57;;;4.00;;
49784;SDS011;35679;38.732;-121.358;2022-11-18T02:06:00;4.05;;;3.75;;
49784;SDS011;35679;38.732;-121.358;2022-11-18T02:08:54;6.05;;;3.92;;
49784;SDS011;35679;38.732;-121.358;2022-11-18T02:11:46;4.13;;;3.83;;
49784;SDS011;35679;38.732;-121.358;2022-11-18T02:14:43;4.10;;;3.80;;
49784;SDS011;35679;38.732;-121.358;2022-11-18T02:20:53;4.10;;;3.70;;
49784;SDS011;35679;38.732;-121.358;2022-11-18T02:26:57;4.20;;;3.90;;
49784;SDS011;35679;38.732;-121.358;2022-11-18T02:29:55;4.90;;;3.85;;
49784;SDS011;35679;38.732;-121.358;2022-11-18T02:32:56;4.28;;;3.97;;
49784;SDS011;35679;38.732;-121.358;2022-11-18T02:36:05;4.25;;;3.85;;
49784;SDS011;35679;38.732;-121.358;2022-11-18T02:39:02;4.00;;;3.70;;
49784;SDS011;35679;38.732;-121.358;2022-11-18T02:42:00;4.28;;;3.88;;
49784;SDS011;35679;38.732;-121.358;2022-11-18T02:45:05;4.55;;;4.20;;
49784;SDS011;35679;38.732;-121.358;2022-11-18T02:48:02;5.25;;;3.70;;
49784;SDS011;35679;38.732;-121.358;2022-11-18T02:50:58;4.30;;;3.88;;
49784;SDS011;35679;38.732;-121.358;2022-11-18T02:53:51;4.28;;;3.88;;
49784;SDS011;35679;38.732;-121.358;2022-11-18T02:56:46;4.30;;;3.95;;
49784;SDS011;35679;38.732;-121.358;2022-11-18T02:59:40;4.13;;;3.83;;
49784;SDS011;35679;38.732;-121.358;2022-11-18T03:02:41;4.10;;;3.80;;
49784;SDS011;35679;38.732;-121.358;2022-11-18T03:05:41;3.90;;;3.60;;
49784;SDS011;35679;38.732;-121.358;2022-11-18T03:08:48;4.15;;;3.83;;
49784;SDS011;35679;38.732;-121.358;2022-11-18T03:15:06;4.13;;;3.83;;
49784;SDS011;35679;38.732;-121.358;2022-11-18T03:21:10;4.70;;;4.30;;
49784;SDS011;35679;38.732;-121.358;2022-11-18T03:24:12;4.57;;;4.18;;
49784;SDS011;35679;38.732;-121.358;2022-11-18T03:27:15;4.50;;;4.10;;
49784;SDS011;35679;38.732;-121.358;2022-11-18T03:30:15;4.85;;;4.30;;
49784;SDS011;35679;38.732;-121.358;2022-11-18T03:33:11;4.55;;;4.15;;
49784;SDS011;35679;38.732;-121.358;2022-11-18T03:36:08;4.43;;;4.03;;
49784;SDS011;35679;38.732;-121.358;2022-11-18T03:39:05;5.68;;;4.00;;
49784;SDS011;35679;38.732;-121.358;2022-11-18T03:42:04;4.25;;;3.90;;
49784;SDS011;35679;38.732;-121.358;2022-11-18T03:45:21;4.50;;;4.10;;
49784;SDS011;35679;38.732;-121.358;2022-11-18T03:48:30;4.40;;;4.00;;
49784;SDS011;35679;38.732;-121.358;2022-11-18T03:51:30;4.70;;;4.30;;
49784;SDS011;35679;38.732;-121.358;2022-11-18T03:54:28;4.68;;;4.20;;
49784;SDS011;35679;38.732;-121.358;2022-11-18T03:57:30;4.57;;;4.18;;
49784;SDS011;35679;38.732;-121.358;2022-11-18T04:00:32;4.70;;;4.30;;
49784;SDS011;35679;38.732;-121.358;2022-11-18T04:03:34;4.00;;;3.60;;
49784;SDS011;35679;38.732;-121.358;2022-11-18T04:06:34;5.25;;;4.35;;
49784;SDS011;35679;38.732;-121.358;2022-11-18T04:09:30;4.65;;;4.25;;
49784;SDS011;35679;38.732;-121.358;2022-11-18T04:12:27;4.55;;;4.15;;
49784;SDS011;35679;38.732;-121.358;2022-11-18T04:15:23;5.03;;;4.20;;
49784;SDS011;35679;38.732;-121.358;2022-11-18T04:18:13;4.55;;;4.15;;
49784;SDS011;35679;38.732;-121.358;2022-11-18T04:21:04;4.32;;;3.92;;
49784;SDS011;35679;38.732;-121.358;2022-11-18T04:23:56;5.22;;;4.30;;
49784;SDS011;35679;38.732;-121.358;2022-11-18T04:26:47;4.15;;;3.85;;
49784;SDS011;35679;38.732;-121.358;2022-11-18T04:29:37;4.60;;;4.20;;
49784;SDS011;35679;38.732;-121.358;2022-11-18T04:32:28;4.80;;;4.40;;
49784;SDS011;35679;38.732;-121.358;2022-11-18T04:35:19;5.30;;;4.80;;
49784;SDS011;35679;38.732;-121.358;2022-11-18T04:38:10;4.50;;;4.10;;
49784;SDS011;35679;38.732;-121.358;2022-11-18T04:41:08;4.60;;;4.20;;
49784;SDS011;35679;38.732;-121.358;2022-11-18T04:43:59;4.97;;;3.90;;
49784;SDS011;35679;38.732;-121.358;2022-11-18T04:47:03;4.68;;;4.25;;
49784;SDS011;35679;38.732;-121.358;2022-11-18T04:49:57;5.45;;;4.45;;
49784;SDS011;35679;38.732;-121.358;2022-11-18T04:52:48;4.25;;;3.85;;
49784;SDS011;35679;38.732;-121.358;2022-11-18T04:55:39;5.15;;;4.65;;
49784;SDS011;35679;38.732;-121.358;2022-11-18T04:58:31;4.82;;;4.35;;
49784;SDS011;35679;38.732;-121.358;2022-11-18T05:01:21;5.05;;;4.40;;
49784;SDS011;35679;38.732;-121.358;2022-11-18T05:04:13;4.88;;;4.22;;
49784;SDS011;35679;38.732;-121.358;2022-11-18T05:07:05;4.77;;;4.37;;
49784;SDS011;35679;38.732;-121.358;2022-11-18T05:09:56;5.43;;;4.38;;
49784;SDS011;35679;38.732;-121.358;2022-11-18T05:12:49;4.80;;;4.40;;
49784;SDS011;35679;38.732;-121.358;2022-11-18T05:15:40;5.65;;;4.85;;
49784;SDS011;35679;38.732;-121.358;2022-11-18T05:18:31;5.10;;;4.60;;
49784;SDS011;35679;38.732;-121.358;2022-11-18T05:21:22;7.13;;;4.68;;
49784;SDS011;35679;38.732;-121.358;2022-11-18T05:24:12;4.40;;;4.00;;
49784;SDS011;35679;38.732;-121.358;2022-11-18T05:27:03;4.78;;;4.38;;
49784;SDS011;35679;38.732;-121.358;2022-11-18T05:29:55;4.88;;;4.18;;
49784;SDS011;35679;38.732;-121.358;2022-11-18T05:32:46;4.43;;;4.03;;
49784;SDS011;35679;38.732;-121.358;2022-11-18T05:35:37;6.22;;;4.88;;
49784;SDS011;35679;38.732;-121.358;2022-11-18T05:38:28;7.40;;;4.60;;
49784;SDS011;35679;38.732;-121.358;2022-11-18T05:41:19;5.40;;;4.90;;
49784;SDS011;35679;38.732;-121.358;2022-11-18T05:44:29;4.70;;;4.30;;
49784;SDS011;35679;38.732;-121.358;2022-11-18T05:47:20;5.63;;;4.78;;
49784;SDS011;35679;38.732;-121.358;2022-11-18T05:53:06;5.00;;;4.60;;
49784;SDS011;35679;38.732;-121.358;2022-11-18T05:59:18;6.40;;;4.80;;
49784;SDS011;35679;38.732;-121.358;2022-11-18T06:02:19;5.25;;;4.75;;
49784;SDS011;35679;38.732;-121.358;2022-11-18T06:05:12;5.70;;;5.10;;
49784;SDS011;35679;38.732;-121.358;2022-11-18T06:08:06;5.47;;;4.95;;
49784;SDS011;35679;38.732;-121.358;2022-11-18T06:11:00;5.70;;;5.10;;
49784;SDS011;35679;38.732;-121.358;2022-11-18T06:14:02;7.55;;;5.38;;
49784;SDS011;35679;38.732;-121.358;2022-11-18T06:17:04;5.35;;;4.85;;
49784;SDS011;35679;38.732;-121.358;2022-11-18T06:20:01;5.43;;;4.93;;
49784;SDS011;35679;38.732;-121.358;2022-11-18T06:22:54;5.28;;;4.78;;
49784;SDS011;35679;38.732;-121.358;2022-11-18T06:25:47;5.25;;;4.82;;
49784;SDS011;35679;38.732;-121.358;2022-11-18T06:28:39;5.88;;;5.38;;
49784;SDS011;35679;38.732;-121.358;2022-11-18T06:31:36;6.35;;;5.38;;
49784;SDS011;35679;38.732;-121.358;2022-11-18T06:34:26;5.95;;;5.30;;
49784;SDS011;35679;38.732;-121.358;2022-11-18T06:37:18;6.30;;;5.03;;
49784;SDS011;35679;38.732;-121.358;2022-11-18T06:40:09;6.03;;;5.45;;
49784;SDS011;35679;38.732;-121.358;2022-11-18T06:43:06;6.07;;;5.20;;
49784;SDS011;35679;38.732;-121.358;2022-11-18T06:46:15;7.45;;;5.78;;
49784;SDS011;35679;38.732;-121.358;2022-11-18T06:49:25;6.53;;;5.32;;
49784;SDS011;35679;38.732;-121.358;2022-11-18T06:52:16;6.47;;;5.60;;
49784;SDS011;35679;38.732;-121.358;2022-11-18T06:55:08;6.80;;;5.40;;
49784;SDS011;35679;38.732;-121.358;2022-11-18T06:57:59;7.82;;;6.00;;
49784;SDS011;35679;38.732;-121.358;2022-11-18T07:00:49;7.10;;;5.97;;
49784;SDS011;35679;38.732;-121.358;2022-11-18T07:03:40;7.75;;;6.10;;
49784;SDS011;35679;38.732;-121.358;2022-11-18T07:06:33;7.07;;;6.07;;
49784;SDS011;35679;38.732;-121.358;2022-11-18T07:09:23;7.65;;;5.63;;
49784;SDS011;35679;38.732;-121.358;2022-11-18T07:12:15;6.60;;;6.00;;
49784;SDS011;35679;38.732;-121.358;2022-11-18T07:15:06;7.57;;;6.03;;
49784;SDS011;35679;38.732;-121.358;2022-11-18T07:17:57;6.50;;;5.45;;
49784;SDS011;35679;38.732;-121.358;2022-11-18T07:20:49;7.78;;;6.03;;
49784;SDS011;35679;38.732;-121.358;2022-11-18T07:23:39;8.32;;;6.28;;
49784;SDS011;35679;38.732;-121.358;2022-11-18T07:26:31;7.63;;;6.10;;
49784;SDS011;35679;38.732;-121.358;2022-11-18T07:29:22;7.45;;;6.28;;
49784;SDS011;35679;38.732;-121.358;2022-11-18T07:32:13;9.18;;;6.80;;
49784;SDS011;35679;38.732;-121.358;2022-11-18T07:35:07;7.30;;;5.68;;
49784;SDS011;35679;38.732;-121.358;2022-11-18T07:37:59;7.13;;;6.22;;
49784;SDS011;35679;38.732;-121.358;2022-11-18T07:40:50;8.57;;;6.30;;
49784;SDS011;35679;38.732;-121.358;2022-11-18T07:43:42;7.47;;;6.22;;
49784;SDS011;35679;38.732;-121.358;2022-11-18T07:46:35;6.38;;;5.63;;
49784;SDS011;35679;38.732;-121.358;2022-11-18T07:49:26;7.50;;;6.20;;
49784;SDS011;35679;38.732;-121.358;2022-11-18T07:52:18;9.45;;;6.85;;
49784;SDS011;35679;38.732;-121.358;2022-11-18T07:55:08;10.38;;;6.47;;
49784;SDS011;35679;38.732;-121.358;2022-11-18T07:58:00;7.35;;;6.20;;
49784;SDS011;35679;38.732;-121.358;2022-11-18T08:00:50;7.82;;;6.07;;
49784;SDS011;35679;38.732;-121.358;2022-11-18T08:03:41;7.22;;;6.47;;
49784;SDS011;35679;38.732;-121.358;2022-11-18T08:06:32;7.53;;;6.65;;
49784;SDS011;35679;38.732;-121.358;2022-11-18T08:09:23;7.38;;;6.55;;
49784;SDS011;35679;38.732;-121.358;2022-11-18T08:12:14;9.20;;;6.65;;
49784;SDS011;35679;38.732;-121.358;2022-11-18T08:15:05;8.68;;;6.80;;
49784;SDS011;35679;38.732;-121.358;2022-11-18T08:17:58;7.75;;;6.80;;
49784;SDS011;35679;38.732;-121.358;2022-11-18T08:20:50;10.75;;;7.07;;
49784;SDS011;35679;38.732;-121.358;2022-11-18T08:23:42;8.35;;;6.40;;
49784;SDS011;35679;38.732;-121.358;2022-11-18T08:26:33;8.85;;;6.85;;
49784;SDS011;35679;38.732;-121.358;2022-11-18T08:29:27;7.22;;;6.53;;
49784;SDS011;35679;38.732;-121.358;2022-11-18T08:32:17;8.43;;;7.10;;
49784;SDS011;35679;38.732;-121.358;2022-11-18T08:35:07;9.48;;;6.60;;
49784;SDS011;35679;38.732;-121.358;2022-11-18T08:37:59;8.02;;;7.22;;
49784;SDS011;35679;38.732;-121.358;2022-11-18T08:40:51;9.32;;;6.72;;
49784;SDS011;35679;38.732;-121.358;2022-11-18T08:43:42;8.88;;;6.70;;
49784;SDS011;35679;38.732;-121.358;2022-11-18T08:46:33;9.23;;;6.80;;
49784;SDS011;35679;38.732;-121.358;2022-11-18T08:49:24;7.88;;;7.00;;
49784;SDS011;35679;38.732;-121.358;2022-11-18T08:52:19;8.65;;;6.80;;
49784;SDS011;35679;38.732;-121.358;2022-11-18T08:55:10;8.73;;;7.50;;
49784;SDS011;35679;38.732;-121.358;2022-11-18T08:58:01;9.95;;;7.30;;
49784;SDS011;35679;38.732;-121.358;2022-11-18T09:00:53;9.85;;;7.15;;
49784;SDS011;35679;38.732;-121.358;2022-11-18T09:03:44;9.52;;;7.22;;
49784;SDS011;35679;38.732;-121.358;2022-11-18T09:06:35;8.73;;;7.13;;
49784;SDS011;35679;38.732;-121.358;2022-11-18T09:09:29;9.20;;;7.18;;
49784;SDS011;35679;38.732;-121.358;2022-11-18T09:12:20;9.63;;;7.45;;
49784;SDS011;35679;38.732;-121.358;2022-11-18T09:15:10;8.82;;;7.32;;
49784;SDS011;35679;38.732;-121.358;2022-11-18T09:18:03;8.05;;;7.25;;
49784;SDS011;35679;38.732;-121.358;2022-11-18T09:20:58;10.88;;;7.05;;
49784;SDS011;35679;38.732;-121.358;2022-11-18T09:23:51;9.77;;;7.50;;
49784;SDS011;35679;38.732;-121.358;2022-11-18T09:26:43;9.68;;;7.80;;
49784;SDS011;35679;38.732;-121.358;2022-11-18T09:29:35;10.20;;;7.35;;
49784;SDS011;35679;38.732;-121.358;2022-11-18T09:32:26;10.05;;;7.43;;
49784;SDS011;35679;38.732;-121.358;2022-11-18T09:35:18;7.75;;;6.75;;
49784;SDS011;35679;38.732;-121.358;2022-11-18T09:38:09;8.63;;;7.25;;
49784;SDS011;35679;38.732;-121.358;2022-11-18T09:47:19;10.38;;;7.32;;
49784;SDS011;35679;38.732;-121.358;2022-11-18T09:50:20;8.73;;;7.25;;
49784;SDS011;35679;38.732;-121.358;2022-11-18T09:53:32;10.80;;;7.70;;
49784;SDS011;35679;38.732;-121.358;2022-11-18T09:56:27;8.48;;;7.18;;
49784;SDS011;35679;38.732;-121.358;2022-11-18T09:59:19;8.35;;;6.90;;
49784;SDS011;35679;38.732;-121.358;2022-11-18T10:05:19;9.10;;;7.35;;
49784;SDS011;35679;38.732;-121.358;2022-11-18T10:08:20;8.85;;;7.20;;
49784;SDS011;35679;38.732;-121.358;2022-11-18T10:17:41;8.52;;;7.03;;
49784;SDS011;35679;38.732;-121.358;2022-11-18T10:20:52;8.90;;;7.18;;
49784;SDS011;35679;38.732;-121.358;2022-11-18T10:26:44;9.13;;;7.30;;
49784;SDS011;35679;38.732;-121.358;2022-11-18T10:29:36;9.00;;;6.95;;
49784;SDS011;35679;38.732;-121.358;2022-11-18T10:32:29;10.38;;;7.75;;
49784;SDS011;35679;38.732;-121.358;2022-11-18T10:35:33;11.48;;;8.10;;
49784;SDS011;35679;38.732;-121.358;2022-11-18T10:38:25;9.30;;;7.40;;
49784;SDS011;35679;38.732;-121.358;2022-11-18T10:41:17;8.88;;;7.03;;
49784;SDS011;35679;38.732;-121.358;2022-11-18T10:44:29;8.85;;;7.40;;
49784;SDS011;35679;38.732;-121.358;2022-11-18T10:47:29;9.73;;;7.38;;
49784;SDS011;35679;38.732;-121.358;2022-11-18T10:51:05;10.27;;;7.60;;
49784;SDS011;35679;38.732;-121.358;2022-11-18T10:53:42;10.13;;;7.93;;
49784;SDS011;35679;38.732;-121.358;2022-11-18T10:56:43;9.30;;;7.75;;
49784;SDS011;35679;38.732;-121.358;2022-11-18T10:59:56;10.57;;;7.38;;
49784;SDS011;35679;38.732;-121.358;2022-11-18T11:02:47;9.75;;;7.72;;
49784;SDS011;35679;38.732;-121.358;2022-11-18T11:05:37;10.18;;;7.63;;
49784;SDS011;35679;38.732;-121.358;2022-11-18T11:08:28;10.75;;;7.68;;
49784;SDS011;35679;38.732;-121.358;2022-11-18T11:17:53;12.65;;;7.45;;
49784;SDS011;35679;38.732;-121.358;2022-11-18T11:24:12;8.02;;;7.20;;
49784;SDS011;35679;38.732;-121.358;2022-11-18T11:31:24;9.73;;;7.55;;
49784;SDS011;35679;38.732;-121.358;2022-11-18T12:00:33;8.82;;;7.53;;
49784;SDS011;35679;38.732;-121.358;2022-11-18T12:06:48;8.88;;;7.97;;
49784;SDS011;35679;38.732;-121.358;2022-11-18T12:09:48;8.43;;;7.32;;
49784;SDS011;35679;38.732;-121.358;2022-11-18T12:12:49;10.50;;;7.30;;
49784;SDS011;35679;38.732;-121.358;2022-11-18T12:19:06;8.10;;;7.30;;
49784;SDS011;35679;38.732;-121.358;2022-11-18T12:22:03;9.82;;;8.35;;
49784;SDS011;35679;38.732;-121.358;2022-11-18T12:24:55;8.95;;;7.20;;
49784;SDS011;35679;38.732;-121.358;2022-11-18T12:30:41;8.57;;;7.65;;
49784;SDS011;35679;38.732;-121.358;2022-11-18T12:33:32;11.10;;;7.70;;
49784;SDS011;35679;38.732;-121.358;2022-11-18T12:36:31;8.10;;;7.30;;
49784;SDS011;35679;38.732;-121.358;2022-11-18T12:45:47;8.90;;;7.63;;
49784;SDS011;35679;38.732;-121.358;2022-11-18T12:48:40;7.97;;;7.18;;
49784;SDS011;35679;38.732;-121.358;2022-11-18T12:51:38;8.75;;;7.32;;
49784;SDS011;35679;38.732;-121.358;2022-11-18T12:57:26;10.10;;;7.32;;
49784;SDS011;35679;38.732;-121.358;2022-11-18T13:03:14;7.72;;;6.88;;
49784;SDS011;35679;38.732;-121.358;2022-11-18T13:06:25;8.88;;;7.50;;
49784;SDS011;35679;38.732;-121.358;2022-11-18T13:09:20;9.68;;;7.43;;
49784;SDS011;35679;38.732;-121.358;2022-11-18T13:12:15;11.18;;;7.22;;
49784;SDS011;35679;38.732;-121.358;2022-11-18T13:18:22;7.18;;;6.25;;
49784;SDS011;35679;38.732;-121.358;2022-11-18T13:21:18;9.13;;;7.30;;
49784;SDS011;35679;38.732;-121.358;2022-11-18T13:24:41;10.00;;;7.22;;
49784;SDS011;35679;38.732;-121.358;2022-11-18T13:27:47;9.70;;;7.45;;
49784;SDS011;35679;38.732;-121.358;2022-11-18T13:30:50;10.57;;;7.28;;
49784;SDS011;35679;38.732;-121.358;2022-11-18T13:33:53;10.30;;;7.25;;
49784;SDS011;35679;38.732;-121.358;2022-11-18T13:36:44;7.88;;;6.90;;
49784;SDS011;35679;38.732;-121.358;2022-11-18T13:39:35;11.15;;;8.18;;
49784;SDS011;35679;38.732;-121.358;2022-11-18T13:42:32;9.25;;;6.90;;
49784;SDS011;35679;38.732;-121.358;2022-11-18T13:45:24;8.00;;;7.20;;
49784;SDS011;35679;38.732;-121.358;2022-11-18T13:48:16;11.55;;;7.53;;
49784;SDS011;35679;38.732;-121.358;2022-11-18T13:51:06;9.30;;;7.47;;
49784;SDS011;35679;38.732;-121.358;2022-11-18T13:53:56;9.57;;;7.20;;
49784;SDS011;35679;38.732;-121.358;2022-11-18T13:56:51;11.10;;;8.40;;
49784;SDS011;35679;38.732;-121.358;2022-11-18T13:59:44;8.10;;;7.30;;
49784;SDS011;35679;38.732;-121.358;2022-11-18T14:02:38;11.25;;;7.88;;
49784;SDS011;35679;38.732;-121.358;2022-11-18T14:05:34;10.25;;;7.63;;
49784;SDS011;35679;38.732;-121.358;2022-11-18T14:08:29;10.80;;;7.82;;
49784;SDS011;35679;38.732;-121.358;2022-11-18T14:11:34;7.68;;;6.78;;
49784;SDS011;35679;38.732;-121.358;2022-11-18T14:14:29;9.05;;;7.80;;
49784;SDS011;35679;38.732;-121.358;2022-11-18T14:17:28;8.48;;;7.57;;
49784;SDS011;35679;38.732;-121.358;2022-11-18T14:20:19;10.82;;;7.75;;
49784;SDS011;35679;38.732;-121.358;2022-11-18T14:23:11;8.65;;;7.25;;
49784;SDS011;35679;38.732;-121.358;2022-11-18T14:26:05;9.93;;;7.75;;
49784;SDS011;35679;38.732;-121.358;2022-11-18T14:28:57;9.68;;;8.02;;
49784;SDS011;35679;38.732;-121.358;2022-11-18T14:32:03;11.10;;;7.57;;
49784;SDS011;35679;38.732;-121.358;2022-11-18T14:35:00;9.30;;;7.88;;
49784;SDS011;35679;38.732;-121.358;2022-11-18T14:37:51;9.45;;;8.20;;
49784;SDS011;35679;38.732;-121.358;2022-11-18T14:41:01;12.18;;;7.35;;
49784;SDS011;35679;38.732;-121.358;2022-11-18T14:43:53;9.77;;;7.22;;
49784;SDS011;35679;38.732;-121.358;2022-11-18T14:47:28;8.98;;;7.20;;
49784;SDS011;35679;38.732;-121.358;2022-11-18T14:50:20;8.90;;;7.43;;
49784;SDS011;35679;38.732;-121.358;2022-11-18T14:53:10;11.30;;;7.68;;
49784;SDS011;35679;38.732;-121.358;2022-11-18T14:56:02;11.77;;;7.53;;
49784;SDS011;35679;38.732;-121.358;2022-11-18T14:58:59;11.05;;;8.13;;
49784;SDS011;35679;38.732;-121.358;2022-11-18T15:01:50;9.68;;;7.57;;
49784;SDS011;35679;38.732;-121.358;2022-11-18T15:04:41;8.65;;;7.70;;
49784;SDS011;35679;38.732;-121.358;2022-11-18T15:07:32;8.75;;;7.30;;
49784;SDS011;35679;38.732;-121.358;2022-11-18T15:10:22;8.82;;;7.28;;
49784;SDS011;35679;38.732;-121.358;2022-11-18T15:13:13;8.82;;;7.10;;
49784;SDS011;35679;38.732;-121.358;2022-11-18T15:16:18;10.30;;;7.35;;
49784;SDS011;35679;38.732;-121.358;2022-11-18T15:19:14;9.57;;;7.97;;
49784;SDS011;35679;38.732;-121.358;2022-11-18T15:22:05;11.00;;;7.47;;
49784;SDS011;35679;38.732;-121.358;2022-11-18T15:24:55;9.68;;;7.47;;
49784;SDS011;35679;38.732;-121.358;2022-11-18T15:27:45;9.82;;;7.05;;
49784;SDS011;35679;38.732;-121.358;2022-11-18T15:30:36;9.10;;;7.70;;
49784;SDS011;35679;38.732;-121.358;2022-11-18T15:33:27;8.52;;;7.63;;
49784;SDS011;35679;38.732;-121.358;2022-11-18T15:36:18;9.30;;;8.25;;
49784;SDS011;35679;38.732;-121.358;2022-11-18T15:39:10;10.90;;;8.02;;
49784;SDS011;35679;38.732;-121.358;2022-11-18T15:42:00;9.77;;;7.82;;
49784;SDS011;35679;38.732;-121.358;2022-11-18T15:44:50;11.00;;;8.13;;
49784;SDS011;35679;38.732;-121.358;2022-11-18T15:47:41;8.20;;;7.18;;
49784;SDS011;35679;38.732;-121.358;2022-11-18T15:50:31;10.02;;;8.05;;
49784;SDS011;35679;38.732;-121.358;2022-11-18T15:53:21;9.30;;;7.68;;
49784;SDS011;35679;38.732;-121.358;2022-11-18T15:59:11;10.02;;;7.57;;
49784;SDS011;35679;38.732;-121.358;2022-11-18T16:02:01;10.18;;;8.00;;
49784;SDS011;35679;38.732;-121.358;2022-11-18T16:04:52;10.70;;;8.13;;
49784;SDS011;35679;38.732;-121.358;2022-11-18T16:07:43;11.25;;;8.10;;
49784;SDS011;35679;38.732;-121.358;2022-11-18T16:10:41;9.18;;;8.05;;
49784;SDS011;35679;38.732;-121.358;2022-11-18T16:13:50;11.20;;;8.02;;
49784;SDS011;35679;38.732;-121.358;2022-11-18T16:16:41;12.40;;;8.57;;
49784;SDS011;35679;38.732;-121.358;2022-11-18T16:19:32;10.18;;;8.13;;
49784;SDS011;35679;38.732;-121.358;2022-11-18T16:22:22;11.80;;;8.80;;
49784;SDS011;35679;38.732;-121.358;2022-11-18T16:25:12;9.88;;;8.00;;
49784;SDS011;35679;38.732;-121.358;2022-11-18T16:28:03;12.02;;;8.25;;
49784;SDS011;35679;38.732;-121.358;2022-11-18T16:30:54;9.88;;;8.00;;
49784;SDS011;35679;38.732;-121.358;2022-11-18T16:34:12;10.77;;;8.57;;
49784;SDS011;35679;38.732;-121.358;2022-11-18T16:37:23;9.95;;;8.02;;
49784;SDS011;35679;38.732;-121.358;2022-11-18T16:40:14;10.25;;;7.40;;
49784;SDS011;35679;38.732;-121.358;2022-11-18T16:43:04;12.75;;;8.35;;
49784;SDS011;35679;38.732;-121.358;2022-11-18T16:45:55;9.27;;;7.60;;
49784;SDS011;35679;38.732;-121.358;2022-11-18T16:48:45;9.45;;;8.20;;
49784;SDS011;35679;38.732;-121.358;2022-11-18T16:51:35;11.43;;;8.30;;
49784;SDS011;35679;38.732;-121.358;2022-11-18T16:54:28;9.93;;;8.18;;
49784;SDS011;35679;38.732;-121.358;2022-11-18T16:57:19;10.23;;;8.10;;
49784;SDS011;35679;38.732;-121.358;2022-11-18T17:00:10;10.93;;;7.13;;
49784;SDS011;35679;38.732;-121.358;2022-11-18T17:03:01;11.52;;;7.70;;
49784;SDS011;35679;38.732;-121.358;2022-11-18T17:05:52;9.05;;;7.13;;
49784;SDS011;35679;38.732;-121.358;2022-11-18T17:08:42;11.75;;;7.40;;
49784;SDS011;35679;38.732;-121.358;2022-11-18T17:11:33;10.27;;;6.95;;
49784;SDS011;35679;38.732;-121.358;2022-11-18T17:14:24;9.27;;;7.38;;
49784;SDS011;35679;38.732;-121.358;2022-11-18T17:17:15;10.18;;;6.78;;
49784;SDS011;35679;38.732;-121.358;2022-11-18T17:20:05;9.95;;;6.80;;
49784;SDS011;35679;38.732;-121.358;2022-11-18T17:22:57;8.25;;;6.60;;
49784;SDS011;35679;38.732;-121.358;2022-11-18T17:25:48;8.38;;;6.60;;
49784;SDS011;35679;38.732;-121.358;2022-11-18T17:28:38;7.15;;;6.22;;
49784;SDS011;35679;38.732;-121.358;2022-11-18T17:31:29;10.02;;;7.55;;
49784;SDS011;35679;38.732;-121.358;2022-11-18T17:34:20;9.85;;;6.75;;
49784;SDS011;35679;38.732;-121.358;2022-11-18T17:37:10;10.27;;;7.10;;
49784;SDS011;35679;38.732;-121.358;2022-11-18T17:40:01;9.93;;;6.70;;
49784;SDS011;35679;38.732;-121.358;2022-11-18T17:42:51;10.52;;;7.10;;
49784;SDS011;35679;38.732;-121.358;2022-11-18T17:45:41;9.43;;;7.13;;
49784;SDS011;35679;38.732;-121.358;2022-11-18T17:48:37;8.10;;;6.72;;
49784;SDS011;35679;38.732;-121.358;2022-11-18T17:51:27;8.82;;;6.88;;
49784;SDS011;35679;38.732;-121.358;2022-11-18T17:54:19;9.80;;;6.75;;
49784;SDS011;35679;38.732;-121.358;2022-11-18T17:57:10;7.72;;;6.93;;
49784;SDS011;35679;38.732;-121.358;2022-11-18T18:00:02;8.82;;;6.45;;
49784;SDS011;35679;38.732;-121.358;2022-11-18T18:02:53;8.15;;;6.93;;
49784;SDS011;35679;38.732;-121.358;2022-11-18T18:05:44;8.70;;;6.70;;
49784;SDS011;35679;38.732;-121.358;2022-11-18T18:08:33;8.55;;;6.97;;
49784;SDS011;35679;38.732;-121.358;2022-11-18T18:11:24;8.30;;;6.93;;
49784;SDS011;35679;38.732;-121.358;2022-11-18T18:14:15;10.20;;;6.65;;
49784;SDS011;35679;38.732;-121.358;2022-11-18T18:17:06;9.82;;;6.82;;
49784;SDS011;35679;38.732;-121.358;2022-11-18T18:19:58;9.30;;;6.97;;
49784;SDS011;35679;38.732;-121.358;2022-11-18T18:22:48;8.20;;;6.78;;
49784;SDS011;35679;38.732;-121.358;2022-11-18T18:25:40;8.52;;;6.78;;
49784;SDS011;35679;38.732;-121.358;2022-11-18T18:28:31;9.02;;;6.72;;
49784;SDS011;35679;38.732;-121.358;2022-11-18T18:31:22;8.18;;;6.75;;